| time (UTC) | temp C | wind direction | speed KPH | gust KPH | rain 1hr cm | rain 24hr cm | rain mn cm | humidity % | barometer mb |
| 20260510130028 | 17 | 23 | 0.0 | 0.0 | 0.00 | 0.00 | 0.00 | 83 | 1018.1 |
| 20260510124527 | 17 | 23 | 0.0 | 0.0 | 0.00 | 0.00 | 0.00 | 82 | 1017.8 |
| 20260510123022 | 17 | 23 | 0.0 | 0.0 | 0.00 | 0.00 | 0.00 | 81 | 1017.1 |
| 20260510121520 | 17 | 23 | 0.0 | 0.0 | 0.00 | 0.00 | 0.00 | 81 | 1016.4 |
| 20260510120016 | 17 | 44 | 0.0 | 0.0 | 0.00 | 0.00 | 0.00 | 82 | 1015.9 |
| 20260510114519 | 17 | 129 | 0.0 | 0.0 | 0.00 | 0.00 | 0.00 | 81 | 1015.4 |
| 20260510113012 | 17 | 129 | 0.0 | 0.0 | 0.00 | 0.00 | 0.00 | 80 | 1015.0 |
| 20260510111515 | 17 | 129 | 0.0 | 0.0 | 0.00 | 0.00 | 0.00 | 79 | 1015.0 |
| 20260510110012 | 17 | 129 | 0.0 | 0.0 | 0.00 | 0.00 | 0.00 | 77 | 1014.7 |
| 20260510104508 | 17 | 129 | 0.0 | 0.0 | 0.00 | 0.00 | 0.00 | 76 | 1014.5 |
| 20260510103006 | 18 | 129 | 0.0 | 0.0 | 0.00 | 0.00 | 0.00 | 75 | 1014.3 |
| 20260510101505 | 18 | 129 | 0.0 | 0.0 | 0.00 | 0.00 | 0.00 | 73 | 1014.2 |
| 20260510100006 | 18 | 41 | 0.0 | 0.0 | 0.00 | 0.00 | 0.00 | 71 | 1014.2 |
| 20260510094505 | 18 | 32 | 0.0 | 1.6 | 0.00 | 0.00 | 0.00 | 71 | 1014.0 |
| 20260510093003 | 18 | 11 | 0.0 | 0.0 | 0.00 | 0.00 | 0.00 | 73 | 1013.9 |
| 20260510091600 | 18 | 11 | 0.0 | 0.0 | 0.00 | 0.00 | 0.00 | 71 | 1013.7 |
| 20260510090058 | 18 | 11 | 0.0 | 1.6 | 0.00 | 0.00 | 0.00 | 69 | 1013.7 |
| 20260510084557 | 18 | 21 | 1.6 | 6.4 | 0.00 | 0.00 | 0.00 | 69 | 1013.1 |
| 20260510083102 | 18 | 32 | 0.0 | 4.8 | 0.00 | 0.00 | 0.00 | 70 | 1012.6 |
| 20260510081555 | 19 | 40 | 0.0 | 1.6 | 0.00 | 0.00 | 0.00 | 70 | 1012.0 |
| 20260510080055 | 19 | 24 | 0.0 | 0.0 | 0.00 | 0.00 | 0.00 | 69 | 1012.0 |
| 20260510074552 | 19 | 22 | 0.0 | 6.4 | 0.00 | 0.00 | 0.00 | 67 | 1011.0 |
| 20260510073050 | 20 | 148 | 6.4 | 16.1 | 0.00 | 0.00 | 0.00 | 66 | 1009.7 |
| 20260510071554 | 19 | 181 | 1.6 | 8.0 | 0.00 | 0.00 | 0.00 | 68 | 1013.0 |
| 20260510070044 | 20 | 176 | 0.0 | 11.3 | 0.00 | 0.00 | 0.00 | 63 | 1012.7 |
| 20260510064541 | 20 | 150 | 3.2 | 9.7 | 0.00 | 0.00 | 0.00 | 61 | 1012.2 |
| 20260510063042 | 20 | 132 | 0.0 | 1.6 | 0.00 | 0.00 | 0.00 | 64 | 1015.5 |
| 20260510061545 | 21 | 32 | 0.0 | 0.0 | 0.00 | 0.00 | 0.00 | 61 | 1014.4 |
| 20260510060032 | 21 | 32 | 0.0 | 1.6 | 0.00 | 0.00 | 0.00 | 60 | 1014.6 |
| 20260510054529 | 21 | 33 | 0.0 | 0.0 | 0.00 | 0.00 | 0.00 | 59 | 1014.9 |
| 20260510053026 | 21 | 34 | 0.0 | 4.8 | 0.00 | 0.00 | 0.00 | 58 | 1015.0 |
| 20260510051524 | 22 | 49 | 0.0 | 8.0 | 0.00 | 0.00 | 0.00 | 56 | 1015.2 |
| 20260510050026 | 22 | 31 | 3.2 | 8.0 | 0.00 | 0.00 | 0.00 | 55 | 1014.9 |
| 20260510044516 | 22 | 160 | 0.0 | 0.0 | 0.00 | 0.00 | 0.00 | 53 | 1014.1 |
| 20260510043020 | 21 | 160 | 0.0 | 0.0 | 0.00 | 0.00 | 0.00 | 54 | 1013.6 |
| 20260510041515 | 21 | 160 | 0.0 | 0.0 | 0.00 | 0.00 | 0.00 | 54 | 1013.3 |
| 20260510040013 | 21 | 160 | 0.0 | 0.0 | 0.00 | 0.00 | 0.00 | 54 | 1013.2 |
| 20260510034512 | 22 | 160 | 0.0 | 0.0 | 0.00 | 0.00 | 0.00 | 54 | 1013.0 |
| 20260510033012 | 22 | 160 | 0.0 | 0.0 | 0.00 | 0.00 | 0.00 | 51 | 1012.9 |
| 20260510031529 | 22 | 160 | 0.0 | 0.0 | 0.00 | 0.00 | 0.00 | 50 | 1013.1 |
| 20260510030016 | 22 | 160 | 0.0 | 0.0 | 0.00 | 0.00 | 0.00 | 50 | 1013.1 |
| 20260510024512 | 22 | 160 | 0.0 | 0.0 | 0.00 | 0.00 | 0.00 | 51 | 1012.8 |
| 20260510023010 | 22 | 160 | 0.0 | 0.0 | 0.00 | 0.00 | 0.00 | 53 | 1012.2 |
| 20260510021510 | 22 | 160 | 0.0 | 0.0 | 0.00 | 0.00 | 0.00 | 53 | 1011.4 |
| 20260510020009 | 22 | 160 | 0.0 | 0.0 | 0.00 | 0.00 | 0.00 | 52 | 1011.1 |
| 20260510014508 | 23 | 169 | 0.0 | 0.0 | 0.00 | 0.00 | 0.00 | 49 | 1010.8 |
| 20260510013008 | 23 | 169 | 0.0 | 0.0 | 0.00 | 0.00 | 0.00 | 47 | 1010.7 |
| 20260510011508 | 24 | 164 | 0.0 | 0.0 | 0.00 | 0.00 | 0.00 | 46 | 1010.5 |
| 20260510010007 | 25 | 212 | 0.0 | 0.0 | 0.00 | 0.00 | 0.00 | 44 | 1010.3 |
| 20260510004506 | 25 | 210 | 0.0 | 1.6 | 0.00 | 0.00 | 0.00 | 42 | 1010.3 |
| 20260510003018 | 25 | 131 | 0.0 | 3.2 | 0.00 | 0.00 | 0.00 | 40 | 1010.1 |
| 20260510001505 | 26 | 150 | 1.6 | 4.8 | 0.00 | 0.00 | 0.00 | 40 | 1010.1 |
| 20260510000005 | 26 | 155 | 4.8 | 9.7 | 0.00 | 0.00 | 0.00 | 39 | 1010.2 |
| 20260509234508 | 26 | 127 | 0.0 | 8.0 | 0.00 | 0.00 | 0.00 | 37 | 1010.2 |
| 20260509233001 | 26 | 172 | 1.6 | 12.9 | 0.00 | 0.00 | 0.00 | 33 | 1010.4 |
| 20260509231601 | 26 | 139 | 3.2 | 12.9 | 0.00 | 0.00 | 0.00 | 31 | 1010.3 |
| 20260509230108 | 26 | 126 | 3.2 | 12.9 | 0.00 | 0.00 | 0.00 | 35 | 1010.4 |
| 20260509224556 | 26 | 129 | 0.0 | 6.4 | 0.00 | 0.00 | 0.00 | 36 | 1010.6 |
| 20260509223056 | 26 | 145 | 3.2 | 8.0 | 0.00 | 0.00 | 0.00 | 36 | 1010.4 |
| 20260509221554 | 26 | 148 | 0.0 | 9.7 | 0.00 | 0.00 | 0.00 | 38 | 1010.5 |
| 20260509220052 | 26 | 168 | 1.6 | 8.0 | 0.00 | 0.00 | 0.00 | 38 | 1010.7 |
| 20260509214553 | 27 | 167 | 1.6 | 6.4 | 0.00 | 0.00 | 0.00 | 34 | 1010.7 |
| 20260509213052 | 27 | 115 | 1.6 | 12.9 | 0.00 | 0.00 | 0.00 | 29 | 1010.9 |
| 20260509211545 | 27 | 128 | 3.2 | 8.0 | 0.00 | 0.00 | 0.00 | 33 | 1011.0 |
| 20260509210048 | 27 | 232 | 1.6 | 6.4 | 0.00 | 0.00 | 0.00 | 32 | 1011.3 |
| 20260509204542 | 27 | 230 | 1.6 | 9.7 | 0.00 | 0.00 | 0.00 | 32 | 1011.5 |
| 20260509203039 | 28 | 152 | 3.2 | 9.7 | 0.00 | 0.00 | 0.00 | 33 | 1011.5 |
| 20260509201539 | 28 | 129 | 0.0 | 6.4 | 0.00 | 0.00 | 0.00 | 35 | 1011.6 |
| 20260509200034 | 28 | 238 | 4.8 | 20.9 | 0.00 | 0.00 | 0.00 | 35 | 1011.7 |
| 20260509194536 | 28 | 143 | 0.0 | 8.0 | 0.00 | 0.00 | 0.00 | 36 | 1011.9 |
| 20260509193032 | 28 | 94 | 0.0 | 4.8 | 0.00 | 0.00 | 0.00 | 34 | 1012.1 |
| 20260509191531 | 28 | 157 | 0.0 | 1.6 | 0.00 | 0.00 | 0.00 | 38 | 1012.1 |
| 20260509190029 | 28 | 166 | 0.0 | 0.0 | 0.00 | 0.00 | 0.00 | 35 | 1012.1 |
| 20260509184527 | 27 | 125 | 0.0 | 4.8 | 0.00 | 0.00 | 0.00 | 34 | 1012.1 |
| 20260509183027 | 27 | 252 | 0.0 | 4.8 | 0.00 | 0.00 | 0.00 | 39 | 1012.3 |
| 20260509181537 | 27 | 217 | 0.0 | 3.2 | 0.00 | 0.00 | 0.00 | 50 | 1012.5 |
| 20260509180019 | 27 | 5 | 0.0 | 1.6 | 0.00 | 0.00 | 0.00 | 56 | 1012.8 |
| 20260509174517 | 26 | 251 | 0.0 | 0.0 | 0.00 | 0.00 | 0.00 | 57 | 1012.9 |
| 20260509173022 | 26 | 115 | 0.0 | 3.2 | 0.00 | 0.00 | 0.00 | 58 | 1013.2 |
| 20260509171511 | 25 | 131 | 0.0 | 1.6 | 0.00 | 0.00 | 0.00 | 61 | 1013.2 |
| 20260509170007 | 25 | 240 | 0.0 | 6.4 | 0.00 | 0.00 | 0.00 | 67 | 1013.3 |
| 20260509164502 | 23 | 116 | 0.0 | 1.6 | 0.00 | 0.00 | 0.00 | 71 | 1013.4 |
| 20260509163102 | 23 | 130 | 0.0 | 1.6 | 0.00 | 0.00 | 0.00 | 78 | 1013.5 |
| 20260509161555 | 22 | 183 | 0.0 | 4.8 | 0.00 | 0.00 | 0.00 | 77 | 1013.4 |
| 20260509160057 | 21 | 269 | 0.0 | 1.6 | 0.00 | 0.00 | 0.00 | 83 | 1013.3 |
| 20260509154553 | 20 | 179 | 0.0 | 0.0 | 0.00 | 0.00 | 0.00 | 84 | 1013.1 |
| 20260509153044 | 19 | 169 | 0.0 | 0.0 | 0.00 | 0.00 | 0.00 | 88 | 1013.0 |
| 20260509151543 | 18 | 157 | 0.0 | 0.0 | 0.00 | 0.00 | 0.00 | 91 | 1013.3 |
| 20260509150036 | 17 | 163 | 0.0 | 0.0 | 0.00 | 0.00 | 0.00 | 93 | 1013.3 |
| 20260509144538 | 17 | 179 | 0.0 | 0.0 | 0.00 | 0.00 | 0.00 | 93 | 1013.3 |
| 20260509143033 | 16 | 179 | 0.0 | 0.0 | 0.00 | 0.00 | 0.00 | 94 | 1013.3 |
| 20260509141529 | 16 | 165 | 0.0 | 0.0 | 0.00 | 0.00 | 0.00 | 94 | 1013.2 |
| 20260509140026 | 16 | 226 | 0.0 | 0.0 | 0.00 | 0.00 | 0.00 | 94 | 1013.2 |
| 20260509134523 | 15 | 227 | 0.0 | 0.0 | 0.00 | 0.00 | 0.00 | 94 | 1013.1 |
| 20260509133022 | 15 | 229 | 0.0 | 0.0 | 0.00 | 0.00 | 0.00 | 94 | 1012.8 |
| 20260509131519 | 15 | 228 | 0.0 | 0.0 | 0.00 | 0.00 | 0.00 | 94 | 1012.5 |